To NAV CANADA Home Page Login to a new session Search on AWWS site Feedback and Comments Disclaimer Vers la page française équivalente Tips FAQ What's new on the site To the Forecasts and Observations / NOTAM section To "File a Flight Plan" website Publications and other links Update of the User's profile FIC Telephone Numbers My Weather Data Folder Route Weather Data Regional Weather Data Local Weather Data To the Forecasts and Observations / NOTAM section
Request Generated 01/17/2017 at 04:48:29 UTC . Weather information available at that time is displayed.

METAR/TAF

KUUJJUAQ/QC    

METAR CYVP 170400Z 28004KT 15SM FEW260 M32/M35 A3017 RMK CI1 CI TR
SLP224=
METAR CYVP 170300Z 25003KT 15SM SKC M32/M35 A3016 RMK FROIN SLP221=
SPECI CYVP 170250Z 22004KT 150V250 15SM SKC M33/M36 A3015 RMK SLP219=
METAR CYVP 170200Z 00000KT 15SM IC SKC M31/M34 A3014 RMK SLP216=

TAF CYVP 162338Z 1700/1712 26005KT P6SM IC FEW040
BECMG 1707/1709 VRB03KT
RMK NXT FCST BY 170600Z=
Your time UTC time
Weather data provided by Environment Canada and NAV CANADA